• Join FlightAware (Why Join?)
  • Login
  • US Flag 
09:23PM EDT


 

Airport Tracker/Info


-or-


 

Live Flight TrackerFlight Track Log ✈ SWA3764 ✈ 03-May-2013 ✈ KBNA - KTLH

Flight Track Log - Related Links

Times and Time Zones

All times are in EDT time to prevent confusion due to time zone crossing. See the SWA3764 flight status page for this flight to view local times or setup timezone preferences in your user account.

Time Position Orientation Groundspeed Altitude Reporting Facility
EDT Latitude Longitude Course Direction KTS MPH feet Rate Location/Type
09:17AM 36.0667 -86.6833 180° South 161 185 2,900  Level Nashville TRACON
09:18AM 36.0167 -86.6833 180° South 229 264 4,700 2,340 Climbing Nashville TRACON
09:19AM 35.9650 -86.7000 195° South 273 314 7,200 3,480 Climbing Memphis Center
09:20AM 35.8819 -86.7114 186° South 291 335 11,000 3,300 Climbing Memphis Center
09:21AM 35.7928 -86.7281 189° South 312 359 13,800 3,120 Climbing Memphis Center
09:22AM 35.6931 -86.7428 187° South 337 388 17,300 2,760 Climbing Memphis Center
09:24AM 35.4414 -86.7842 188° South 389 448 23,600 2,580 Climbing Atlanta Center
09:25AM 35.3161 -86.7903 182° South 396 456 26,300 2,400 Climbing Atlanta Center
09:26AM 35.1992 -86.7992 184° South 417 480 28,500 2,040 Climbing Atlanta Center
09:27AM 35.0800 -86.8078 183° South 427 491 30,400 2,100 Climbing Atlanta Center
09:28AM 34.9631 -86.8114 181° South 427 491 32,800 2,160 Climbing Atlanta Center
09:29AM 34.8439 -86.8203 184° South 427 491 34,800 2,040 Climbing Atlanta Center
09:30AM 34.7289 -86.8264 183° South 422 486 36,900 1,800 Climbing Atlanta Center
09:31AM 34.6142 -86.8353 184° South 422 486 38,400 1,200 Climbing Atlanta Center
09:32AM 34.5033 -86.8417 183° South 414 476 39,400 780 Climbing Atlanta Center
09:33AM 34.3883 -86.8481 183° South 414 476 40,000 300 Climbing Atlanta Center
09:34AM 34.2942 -86.8550 183° South 414 476 40,000  Level Atlanta Center
09:35AM 34.1672 -86.8456 176° South 419 482 40,000  Level Atlanta Center
09:36AM 34.0511 -86.8117 166° South 424 488 40,000  Level Atlanta Center
09:37AM 33.9350 -86.7806 167° South 429 494 40,000 -480 Level Atlanta Center
09:38AM 33.8186 -86.7492 167° South 429 494 39,100 -540 Descending Atlanta Center
09:39AM 33.7047 -86.7181 167° South 424 488 39,000 -60 Descending Atlanta Center
09:40AM 33.5906 -86.6872 167° South 424 488 39,000  Level Atlanta Center
09:41AM 33.4742 -86.6561 167° South 429 494 39,000  Level Atlanta Center
09:42AM 33.3600 -86.6256 167° South 429 494 39,000  Level Atlanta Center
09:43AM 33.2336 -86.5894 167° South 429 494 39,000  Level Atlanta Center
09:44AM 33.1192 -86.5636 169° South 429 494 39,000  Level Atlanta Center
09:45AM 33.0008 -86.5406 171° South 429 494 39,000 -180 Level Atlanta Center
09:46AM 32.8889 -86.5003 163° South 429 494 38,700 -900 Descending Atlanta Center
09:47AM 32.7747 -86.4697 167° South 429 494 37,200 -1,860 Descending Atlanta Center
09:48AM 32.6583 -86.4419 169° South 429 494 35,000 -2,400 Descending Atlanta Center
09:49AM 32.5419 -86.4117 168° South 429 494 32,500 -960 Descending Atlanta Center
09:55AM 31.9572 -86.2447 166° South 395 455 29,000 -780 Descending Jacksonville Center
09:56AM 31.8517 -86.2164 167° South 395 455 27,900 -1,560 Descending Jacksonville Center
09:57AM 31.7500 -86.1858 166° South 390 449 25,900 -1,980 Descending Jacksonville Center
09:58AM 31.6506 -86.1581 167° South 385 443 24,000 -1,320 Descending Jacksonville Center
09:59AM 31.5511 -86.1300 166° South 374 430 23,300 -900 Descending Jacksonville Center
09:59AM 31.4992 -86.1136 165° South 363 418 22,700 -1,020 Descending Jacksonville Center
10:00AM 31.4536 -86.1022 168° South 368 423 22,300 -1,020 Descending Jacksonville Center
10:00AM 31.3956 -86.0856 166° South 364 419 21,600 -1,020 Descending Jacksonville Center
10:01AM 31.3542 -86.0769 170° South 368 423 21,300 -1,020 Descending Jacksonville Center
10:01AM 31.2942 -86.0556 163° South 361 415 20,600 -1,020 Descending Jacksonville Center
10:02AM 31.2586 -86.0519 175° South 368 423 20,300 -1,020 Descending Jacksonville Center
10:02AM 31.1925 -86.0278 163° South 363 418 19,600 -1,020 Descending Jacksonville Center
10:03AM 31.1614 -86.0219 171° South 368 423 19,300 -1,260 Descending Jacksonville Center
10:04AM 31.0619 -85.9919 166° South 368 423 18,000 -1,500 Descending Jacksonville Center
10:05AM 30.9728 -85.9647 165° South 368 423 16,400 -1,800 Descending Jacksonville Center
10:06AM 30.8753 -85.9397 168° South 368 423 14,500 -2,100 Descending Jacksonville Center
10:07AM 30.7800 -85.9078 164° South 368 423 12,300 -1,800 Descending Jacksonville Center
10:08AM 30.6975 -85.8642 156° South 348 400 11,000 -1,260 Descending Jacksonville Center
10:09AM 30.6211 -85.8231 155° Southeast 321 369 9,800 -1,380 Descending Jacksonville Center
10:10AM 30.5489 -85.7847 155° Southeast 301 346 8,300 -1,380 Descending Jacksonville Center
10:11AM 30.4789 -85.7489 156° South 288 331 7,100 -1,320 Descending Jacksonville Center
10:12AM 30.4106 -85.7131 156° South 278 320 5,700 -1,320 Descending Jacksonville Center
10:13AM 30.3444 -85.6822 158° South 273 314 4,500 -1,320 Descending Jacksonville Center
10:14AM 30.2828 -85.6492 155° Southeast 263 303 3,100 -720 Descending Jacksonville Center
10:15AM 30.2247 -85.6186 156° South 244 281 3,100 -60 Level Jacksonville Center
10:16AM 30.1700 -85.6386 198° South 207 238 3,000 -60 Descending Jacksonville Center
10:17AM 30.1539 -85.7175 257° West 187 215 3,000  Level Jacksonville Center
10:18AM 30.1111 -85.7619 222° Southwest 215 247 3,000  Level Jacksonville Center
10:19AM 30.0617 -85.7339 154° Southeast 171 197 3,000  Level Jacksonville Center
10:20AM 30.0689 -85.6814 81° East 110 127 3,000  Level Jacksonville Center
10:21AM 30.1250 -85.6928 350° North 84 97 3,000  Level Jacksonville Center
10:22AM 30.1769 -85.7158 339° North 142 163 3,000 -240 Level Jacksonville Center
10:23AM 30.2222 -85.7364 339° North 163 188 2,600 -600 Descending Jacksonville Center
10:24AM 30.2658 -85.7544 340° North 170 196 1,800 -840 Descending Jacksonville Center
10:25AM 30.3028 -85.7725 337° Northwest 158 182 1,000 -840 Descending Jacksonville Center
10:26AM 30.3400 -85.7881 340° North 152 175 200 4,980 Descending Jacksonville Center
10:27AM 30.3814 -85.8086 337° Northwest 152 175 11,000 10,800 Climbing Jacksonville Center
10:29AM 30.3852 -85.5592 89° East  Level Estimated
10:36AM 30.3951 -84.6240 89° East  Level Estimated